sensor_id;sensor_type;location;lat;lon;timestamp;P1;durP1;ratioP1;P2;durP2;ratioP2
5821;SDS011;2937;48.562;8.022;2022-11-10T00:05:07;19.80;;;14.73;;
5821;SDS011;2937;48.562;8.022;2022-11-10T00:10:19;19.73;;;14.30;;
5821;SDS011;2937;48.562;8.022;2022-11-10T00:15:30;24.07;;;16.20;;
5821;SDS011;2937;48.562;8.022;2022-11-10T00:21:04;25.83;;;15.47;;
5821;SDS011;2937;48.562;8.022;2022-11-10T00:26:16;23.90;;;14.80;;
5821;SDS011;2937;48.562;8.022;2022-11-10T00:31:27;24.13;;;14.07;;
5821;SDS011;2937;48.562;8.022;2022-11-10T00:36:40;17.70;;;11.80;;
5821;SDS011;2937;48.562;8.022;2022-11-10T00:41:52;18.97;;;10.53;;
5821;SDS011;2937;48.562;8.022;2022-11-10T00:47:03;15.97;;;11.00;;
5821;SDS011;2937;48.562;8.022;2022-11-10T00:52:16;16.80;;;11.20;;
5821;SDS011;2937;48.562;8.022;2022-11-10T00:57:27;13.77;;;10.50;;
5821;SDS011;2937;48.562;8.022;2022-11-10T01:02:38;18.60;;;11.33;;
5821;SDS011;2937;48.562;8.022;2022-11-10T01:07:51;17.90;;;10.33;;
5821;SDS011;2937;48.562;8.022;2022-11-10T01:13:02;16.30;;;11.80;;
5821;SDS011;2937;48.562;8.022;2022-11-10T01:18:13;18.47;;;11.70;;
5821;SDS011;2937;48.562;8.022;2022-11-10T01:23:26;19.47;;;12.30;;
5821;SDS011;2937;48.562;8.022;2022-11-10T01:28:37;26.10;;;12.27;;
5821;SDS011;2937;48.562;8.022;2022-11-10T01:33:48;18.83;;;11.43;;
5821;SDS011;2937;48.562;8.022;2022-11-10T01:39:00;23.73;;;11.93;;
5821;SDS011;2937;48.562;8.022;2022-11-10T01:44:13;26.13;;;12.73;;
5821;SDS011;2937;48.562;8.022;2022-11-10T01:49:25;20.63;;;11.33;;
5821;SDS011;2937;48.562;8.022;2022-11-10T01:54:38;26.60;;;13.57;;
5821;SDS011;2937;48.562;8.022;2022-11-10T01:59:50;28.33;;;13.70;;
5821;SDS011;2937;48.562;8.022;2022-11-10T02:05:01;22.83;;;13.27;;
5821;SDS011;2937;48.562;8.022;2022-11-10T02:10:15;21.53;;;13.20;;
5821;SDS011;2937;48.562;8.022;2022-11-10T02:15:27;21.63;;;12.93;;
5821;SDS011;2937;48.562;8.022;2022-11-10T02:20:42;24.10;;;13.00;;
5821;SDS011;2937;48.562;8.022;2022-11-10T02:25:53;24.43;;;13.60;;
5821;SDS011;2937;48.562;8.022;2022-11-10T02:31:05;23.80;;;14.93;;
5821;SDS011;2937;48.562;8.022;2022-11-10T02:36:19;25.87;;;15.27;;
5821;SDS011;2937;48.562;8.022;2022-11-10T02:41:30;27.73;;;14.27;;
5821;SDS011;2937;48.562;8.022;2022-11-10T02:46:41;26.40;;;13.93;;
5821;SDS011;2937;48.562;8.022;2022-11-10T02:51:54;31.27;;;14.60;;
5821;SDS011;2937;48.562;8.022;2022-11-10T02:57:05;26.47;;;14.37;;
5821;SDS011;2937;48.562;8.022;2022-11-10T03:02:17;28.47;;;15.20;;
5821;SDS011;2937;48.562;8.022;2022-11-10T03:07:30;27.00;;;14.83;;
5821;SDS011;2937;48.562;8.022;2022-11-10T03:12:41;25.30;;;16.37;;
5821;SDS011;2937;48.562;8.022;2022-11-10T03:17:52;33.20;;;16.70;;
5821;SDS011;2937;48.562;8.022;2022-11-10T03:23:05;34.57;;;16.57;;
5821;SDS011;2937;48.562;8.022;2022-11-10T03:28:16;29.80;;;17.53;;
5821;SDS011;2937;48.562;8.022;2022-11-10T03:33:27;35.03;;;18.03;;
5821;SDS011;2937;48.562;8.022;2022-11-10T03:38:40;32.57;;;19.20;;
5821;SDS011;2937;48.562;8.022;2022-11-10T03:43:51;29.53;;;18.53;;
5821;SDS011;2937;48.562;8.022;2022-11-10T03:49:03;35.87;;;19.90;;
5821;SDS011;2937;48.562;8.022;2022-11-10T03:54:15;29.63;;;15.90;;
5821;SDS011;2937;48.562;8.022;2022-11-10T03:59:27;26.03;;;16.00;;
5821;SDS011;2937;48.562;8.022;2022-11-10T04:04:38;32.43;;;16.50;;
5821;SDS011;2937;48.562;8.022;2022-11-10T04:10:08;31.17;;;16.07;;
5821;SDS011;2937;48.562;8.022;2022-11-10T04:15:20;79.50;;;17.40;;
5821;SDS011;2937;48.562;8.022;2022-11-10T04:20:49;146.67;;;18.70;;
5821;SDS011;2937;48.562;8.022;2022-11-10T04:26:03;92.40;;;17.07;;
5821;SDS011;2937;48.562;8.022;2022-11-10T04:31:33;182.30;;;22.73;;
5821;SDS011;2937;48.562;8.022;2022-11-10T04:36:46;317.03;;;23.70;;
5821;SDS011;2937;48.562;8.022;2022-11-10T04:41:58;395.27;;;27.40;;
5821;SDS011;2937;48.562;8.022;2022-11-10T04:47:11;56.30;;;16.20;;
5821;SDS011;2937;48.562;8.022;2022-11-10T04:52:23;188.83;;;18.20;;
5821;SDS011;2937;48.562;8.022;2022-11-10T04:57:35;30.70;;;12.57;;
5821;SDS011;2937;48.562;8.022;2022-11-10T05:02:47;24.90;;;14.57;;
5821;SDS011;2937;48.562;8.022;2022-11-10T05:07:58;25.80;;;13.30;;
5821;SDS011;2937;48.562;8.022;2022-11-10T05:13:11;21.77;;;13.37;;
5821;SDS011;2937;48.562;8.022;2022-11-10T05:18:22;26.97;;;14.33;;
5821;SDS011;2937;48.562;8.022;2022-11-10T05:23:34;28.37;;;15.20;;
5821;SDS011;2937;48.562;8.022;2022-11-10T05:28:49;31.87;;;17.53;;
5821;SDS011;2937;48.562;8.022;2022-11-10T05:34:01;59.57;;;19.00;;
5821;SDS011;2937;48.562;8.022;2022-11-10T05:39:12;152.70;;;25.70;;
5821;SDS011;2937;48.562;8.022;2022-11-10T05:44:25;242.03;;;29.90;;
5821;SDS011;2937;48.562;8.022;2022-11-10T05:49:36;172.13;;;22.67;;
5821;SDS011;2937;48.562;8.022;2022-11-10T05:54:47;48.07;;;18.97;;
5821;SDS011;2937;48.562;8.022;2022-11-10T06:00:00;39.43;;;18.40;;
5821;SDS011;2937;48.562;8.022;2022-11-10T06:05:11;45.40;;;18.23;;
5821;SDS011;2937;48.562;8.022;2022-11-10T06:10:22;36.87;;;17.10;;
5821;SDS011;2937;48.562;8.022;2022-11-10T06:15:34;28.50;;;15.67;;
5821;SDS011;2937;48.562;8.022;2022-11-10T06:20:46;33.10;;;17.37;;
5821;SDS011;2937;48.562;8.022;2022-11-10T06:25:57;43.37;;;22.90;;
5821;SDS011;2937;48.562;8.022;2022-11-10T06:31:09;83.30;;;37.57;;
5821;SDS011;2937;48.562;8.022;2022-11-10T06:36:21;92.57;;;38.83;;
5821;SDS011;2937;48.562;8.022;2022-11-10T06:41:32;90.77;;;37.30;;
5821;SDS011;2937;48.562;8.022;2022-11-10T06:46:44;81.53;;;35.33;;
5821;SDS011;2937;48.562;8.022;2022-11-10T06:51:56;83.37;;;34.80;;
5821;SDS011;2937;48.562;8.022;2022-11-10T06:57:07;71.83;;;32.20;;
5821;SDS011;2937;48.562;8.022;2022-11-10T07:02:20;54.43;;;27.47;;
5821;SDS011;2937;48.562;8.022;2022-11-10T07:07:31;61.93;;;26.70;;
5821;SDS011;2937;48.562;8.022;2022-11-10T07:12:42;69.20;;;30.27;;
5821;SDS011;2937;48.562;8.022;2022-11-10T07:17:55;71.63;;;36.20;;
5821;SDS011;2937;48.562;8.022;2022-11-10T07:23:06;67.43;;;33.77;;
5821;SDS011;2937;48.562;8.022;2022-11-10T07:28:18;43.83;;;26.93;;
5821;SDS011;2937;48.562;8.022;2022-11-10T07:33:37;25.40;;;15.70;;
5821;SDS011;2937;48.562;8.022;2022-11-10T07:38:48;17.77;;;12.00;;
5821;SDS011;2937;48.562;8.022;2022-11-10T07:43:59;8.80;;;6.83;;
5821;SDS011;2937;48.562;8.022;2022-11-10T07:49:12;8.63;;;7.00;;
5821;SDS011;2937;48.562;8.022;2022-11-10T07:54:23;7.30;;;5.53;;
5821;SDS011;2937;48.562;8.022;2022-11-10T07:59:35;7.87;;;5.50;;
5821;SDS011;2937;48.562;8.022;2022-11-10T08:04:47;8.60;;;5.00;;
5821;SDS011;2937;48.562;8.022;2022-11-10T08:09:59;7.83;;;5.03;;
5821;SDS011;2937;48.562;8.022;2022-11-10T08:15:10;6.57;;;4.70;;
5821;SDS011;2937;48.562;8.022;2022-11-10T08:20:22;5.43;;;4.47;;
5821;SDS011;2937;48.562;8.022;2022-11-10T08:25:34;5.13;;;3.63;;
5821;SDS011;2937;48.562;8.022;2022-11-10T08:30:46;10.07;;;3.43;;
5821;SDS011;2937;48.562;8.022;2022-11-10T08:35:59;4.57;;;3.03;;
5821;SDS011;2937;48.562;8.022;2022-11-10T08:41:10;4.17;;;2.80;;
5821;SDS011;2937;48.562;8.022;2022-11-10T08:46:22;7.77;;;3.57;;
5821;SDS011;2937;48.562;8.022;2022-11-10T08:51:34;5.30;;;4.70;;
5821;SDS011;2937;48.562;8.022;2022-11-10T08:56:48;6.93;;;5.57;;
5821;SDS011;2937;48.562;8.022;2022-11-10T09:01:59;8.10;;;6.33;;
5821;SDS011;2937;48.562;8.022;2022-11-10T09:07:11;9.00;;;6.67;;
5821;SDS011;2937;48.562;8.022;2022-11-10T09:12:23;8.80;;;6.90;;
5821;SDS011;2937;48.562;8.022;2022-11-10T09:17:34;8.20;;;7.00;;
5821;SDS011;2937;48.562;8.022;2022-11-10T09:22:47;11.73;;;8.00;;
5821;SDS011;2937;48.562;8.022;2022-11-10T09:27:58;10.83;;;8.30;;
5821;SDS011;2937;48.562;8.022;2022-11-10T09:33:09;10.00;;;7.50;;
5821;SDS011;2937;48.562;8.022;2022-11-10T09:38:22;8.90;;;7.97;;
5821;SDS011;2937;48.562;8.022;2022-11-10T09:43:36;8.97;;;7.00;;
5821;SDS011;2937;48.562;8.022;2022-11-10T09:48:50;10.20;;;7.60;;
5821;SDS011;2937;48.562;8.022;2022-11-10T09:54:03;7.90;;;7.07;;
5821;SDS011;2937;48.562;8.022;2022-11-10T09:59:17;9.37;;;8.07;;
5821;SDS011;2937;48.562;8.022;2022-11-10T10:04:32;8.50;;;6.97;;
5821;SDS011;2937;48.562;8.022;2022-11-10T10:09:47;9.03;;;7.67;;
5821;SDS011;2937;48.562;8.022;2022-11-10T10:15:13;7.53;;;6.10;;
5821;SDS011;2937;48.562;8.022;2022-11-10T10:20:26;7.20;;;6.00;;
5821;SDS011;2937;48.562;8.022;2022-11-10T10:25:42;9.07;;;6.40;;
5821;SDS011;2937;48.562;8.022;2022-11-10T10:30:55;8.13;;;7.27;;
5821;SDS011;2937;48.562;8.022;2022-11-10T10:36:13;6.73;;;6.00;;
5821;SDS011;2937;48.562;8.022;2022-11-10T10:41:27;8.00;;;5.70;;
5821;SDS011;2937;48.562;8.022;2022-11-10T10:46:43;7.10;;;4.90;;
5821;SDS011;2937;48.562;8.022;2022-11-10T10:52:00;5.50;;;4.37;;
5821;SDS011;2937;48.562;8.022;2022-11-10T10:57:21;5.13;;;3.50;;
5821;SDS011;2937;48.562;8.022;2022-11-10T11:02:32;5.37;;;3.70;;
5821;SDS011;2937;48.562;8.022;2022-11-10T11:07:53;5.40;;;3.50;;
5821;SDS011;2937;48.562;8.022;2022-11-10T11:13:19;5.17;;;3.40;;
5821;SDS011;2937;48.562;8.022;2022-11-10T11:18:31;3.60;;;3.30;;
5821;SDS011;2937;48.562;8.022;2022-11-10T11:23:52;5.60;;;3.73;;
5821;SDS011;2937;48.562;8.022;2022-11-10T11:29:12;7.03;;;3.57;;
5821;SDS011;2937;48.562;8.022;2022-11-10T11:34:27;4.83;;;3.13;;
5821;SDS011;2937;48.562;8.022;2022-11-10T11:39:44;7.93;;;3.30;;
5821;SDS011;2937;48.562;8.022;2022-11-10T11:45:02;4.47;;;2.80;;
5821;SDS011;2937;48.562;8.022;2022-11-10T11:50:20;5.10;;;3.30;;
5821;SDS011;2937;48.562;8.022;2022-11-10T11:55:38;5.47;;;2.40;;
5821;SDS011;2937;48.562;8.022;2022-11-10T12:00:55;13.90;;;10.80;;
5821;SDS011;2937;48.562;8.022;2022-11-10T12:06:14;7.20;;;3.10;;
5821;SDS011;2937;48.562;8.022;2022-11-10T12:11:30;8.33;;;4.70;;
5821;SDS011;2937;48.562;8.022;2022-11-10T12:16:48;5.20;;;2.80;;
5821;SDS011;2937;48.562;8.022;2022-11-10T12:22:04;4.37;;;2.33;;
5821;SDS011;2937;48.562;8.022;2022-11-10T12:27:19;5.37;;;2.67;;
5821;SDS011;2937;48.562;8.022;2022-11-10T12:32:37;4.43;;;2.33;;
5821;SDS011;2937;48.562;8.022;2022-11-10T12:37:51;5.20;;;2.20;;
5821;SDS011;2937;48.562;8.022;2022-11-10T12:43:04;4.50;;;2.40;;
5821;SDS011;2937;48.562;8.022;2022-11-10T12:48:18;3.93;;;1.90;;
5821;SDS011;2937;48.562;8.022;2022-11-10T12:53:30;5.37;;;2.10;;
5821;SDS011;2937;48.562;8.022;2022-11-10T12:58:42;3.77;;;2.40;;
5821;SDS011;2937;48.562;8.022;2022-11-10T13:03:55;3.77;;;2.10;;
5821;SDS011;2937;48.562;8.022;2022-11-10T13:09:18;2.80;;;2.10;;
5821;SDS011;2937;48.562;8.022;2022-11-10T13:14:30;3.63;;;2.30;;
5821;SDS011;2937;48.562;8.022;2022-11-10T13:19:51;4.40;;;2.23;;
5821;SDS011;2937;48.562;8.022;2022-11-10T13:30:35;4.17;;;2.13;;
5821;SDS011;2937;48.562;8.022;2022-11-10T13:35:52;3.83;;;2.27;;
5821;SDS011;2937;48.562;8.022;2022-11-10T13:41:17;5.27;;;2.47;;
5821;SDS011;2937;48.562;8.022;2022-11-10T13:46:30;4.50;;;2.40;;
5821;SDS011;2937;48.562;8.022;2022-11-10T13:51:44;3.50;;;2.20;;
5821;SDS011;2937;48.562;8.022;2022-11-10T13:57:03;4.07;;;2.50;;
5821;SDS011;2937;48.562;8.022;2022-11-10T14:07:46;4.40;;;2.60;;
5821;SDS011;2937;48.562;8.022;2022-11-10T14:12:59;4.60;;;2.50;;
5821;SDS011;2937;48.562;8.022;2022-11-10T14:18:15;3.63;;;1.90;;
5821;SDS011;2937;48.562;8.022;2022-11-10T14:23:30;5.87;;;2.60;;
5821;SDS011;2937;48.562;8.022;2022-11-10T14:28:43;4.20;;;2.30;;
5821;SDS011;2937;48.562;8.022;2022-11-10T14:33:55;5.70;;;2.30;;
5821;SDS011;2937;48.562;8.022;2022-11-10T14:39:08;3.20;;;2.70;;
5821;SDS011;2937;48.562;8.022;2022-11-10T14:44:20;5.23;;;3.07;;
5821;SDS011;2937;48.562;8.022;2022-11-10T14:49:31;6.50;;;2.97;;
5821;SDS011;2937;48.562;8.022;2022-11-10T14:54:44;6.30;;;3.60;;
5821;SDS011;2937;48.562;8.022;2022-11-10T14:59:56;6.23;;;3.70;;
5821;SDS011;2937;48.562;8.022;2022-11-10T15:05:08;8.50;;;4.80;;
5821;SDS011;2937;48.562;8.022;2022-11-10T15:10:24;11.40;;;5.70;;
5821;SDS011;2937;48.562;8.022;2022-11-10T15:15:35;6.57;;;3.77;;
5821;SDS011;2937;48.562;8.022;2022-11-10T15:20:54;6.90;;;4.10;;
5821;SDS011;2937;48.562;8.022;2022-11-10T15:26:16;7.60;;;3.90;;
5821;SDS011;2937;48.562;8.022;2022-11-10T15:31:29;12.97;;;8.77;;
5821;SDS011;2937;48.562;8.022;2022-11-10T15:36:41;8.00;;;5.57;;
5821;SDS011;2937;48.562;8.022;2022-11-10T15:41:56;8.87;;;5.60;;
5821;SDS011;2937;48.562;8.022;2022-11-10T15:47:08;8.37;;;5.10;;
5821;SDS011;2937;48.562;8.022;2022-11-10T15:52:20;32.37;;;20.67;;
5821;SDS011;2937;48.562;8.022;2022-11-10T15:57:33;28.27;;;20.40;;
5821;SDS011;2937;48.562;8.022;2022-11-10T16:02:44;16.80;;;12.77;;
5821;SDS011;2937;48.562;8.022;2022-11-10T16:07:55;11.07;;;7.10;;
5821;SDS011;2937;48.562;8.022;2022-11-10T16:13:10;10.57;;;6.47;;
5821;SDS011;2937;48.562;8.022;2022-11-10T16:18:22;7.37;;;5.27;;
5821;SDS011;2937;48.562;8.022;2022-11-10T16:23:35;9.77;;;5.50;;
5821;SDS011;2937;48.562;8.022;2022-11-10T16:28:48;8.27;;;5.13;;
5821;SDS011;2937;48.562;8.022;2022-11-10T16:33:59;16.00;;;7.80;;
5821;SDS011;2937;48.562;8.022;2022-11-10T16:39:11;16.60;;;10.20;;
5821;SDS011;2937;48.562;8.022;2022-11-10T16:44:23;14.43;;;7.00;;
5821;SDS011;2937;48.562;8.022;2022-11-10T16:49:34;10.27;;;6.70;;
5821;SDS011;2937;48.562;8.022;2022-11-10T16:54:46;11.23;;;7.23;;
5821;SDS011;2937;48.562;8.022;2022-11-10T16:59:58;12.57;;;8.10;;
5821;SDS011;2937;48.562;8.022;2022-11-10T17:05:11;15.63;;;7.97;;
5821;SDS011;2937;48.562;8.022;2022-11-10T17:10:23;15.07;;;9.10;;
5821;SDS011;2937;48.562;8.022;2022-11-10T17:15:36;11.93;;;8.50;;
5821;SDS011;2937;48.562;8.022;2022-11-10T17:20:48;15.03;;;8.33;;
5821;SDS011;2937;48.562;8.022;2022-11-10T17:25:59;329.27;;;193.87;;
5821;SDS011;2937;48.562;8.022;2022-11-10T17:31:12;108.23;;;73.23;;
5821;SDS011;2937;48.562;8.022;2022-11-10T17:36:24;11.00;;;9.30;;
5821;SDS011;2937;48.562;8.022;2022-11-10T17:41:35;17.47;;;12.47;;
5821;SDS011;2937;48.562;8.022;2022-11-10T17:46:48;17.90;;;12.83;;
5821;SDS011;2937;48.562;8.022;2022-11-10T17:51:59;9.30;;;7.40;;
5821;SDS011;2937;48.562;8.022;2022-11-10T17:57:11;11.40;;;8.10;;
5821;SDS011;2937;48.562;8.022;2022-11-10T18:02:23;30.03;;;22.40;;
5821;SDS011;2937;48.562;8.022;2022-11-10T18:07:35;20.03;;;14.63;;
5821;SDS011;2937;48.562;8.022;2022-11-10T18:12:46;21.13;;;16.53;;
5821;SDS011;2937;48.562;8.022;2022-11-10T18:17:58;47.63;;;34.80;;
5821;SDS011;2937;48.562;8.022;2022-11-10T18:23:10;13.80;;;11.17;;
5821;SDS011;2937;48.562;8.022;2022-11-10T18:28:21;29.33;;;24.40;;
5821;SDS011;2937;48.562;8.022;2022-11-10T18:33:34;56.83;;;49.07;;
5821;SDS011;2937;48.562;8.022;2022-11-10T18:38:45;13.93;;;8.07;;
5821;SDS011;2937;48.562;8.022;2022-11-10T18:43:56;20.57;;;18.43;;
5821;SDS011;2937;48.562;8.022;2022-11-10T18:49:09;69.77;;;49.43;;
5821;SDS011;2937;48.562;8.022;2022-11-10T18:54:20;71.80;;;45.57;;
5821;SDS011;2937;48.562;8.022;2022-11-10T18:59:32;36.27;;;29.00;;
5821;SDS011;2937;48.562;8.022;2022-11-10T19:04:44;27.50;;;19.00;;
5821;SDS011;2937;48.562;8.022;2022-11-10T19:10:02;45.83;;;33.13;;
5821;SDS011;2937;48.562;8.022;2022-11-10T19:15:13;13.17;;;8.87;;
5821;SDS011;2937;48.562;8.022;2022-11-10T19:20:26;9.13;;;5.60;;
5821;SDS011;2937;48.562;8.022;2022-11-10T19:25:37;9.57;;;6.30;;
5821;SDS011;2937;48.562;8.022;2022-11-10T19:30:48;9.47;;;6.30;;
5821;SDS011;2937;48.562;8.022;2022-11-10T19:36:01;10.33;;;6.40;;
5821;SDS011;2937;48.562;8.022;2022-11-10T19:41:14;10.67;;;6.10;;
5821;SDS011;2937;48.562;8.022;2022-11-10T19:46:26;7.03;;;5.67;;
5821;SDS011;2937;48.562;8.022;2022-11-10T19:51:39;9.03;;;6.13;;
5821;SDS011;2937;48.562;8.022;2022-11-10T19:56:50;15.87;;;11.63;;
5821;SDS011;2937;48.562;8.022;2022-11-10T20:02:02;10.80;;;5.70;;
5821;SDS011;2937;48.562;8.022;2022-11-10T20:07:15;8.30;;;6.50;;
5821;SDS011;2937;48.562;8.022;2022-11-10T20:12:44;9.73;;;7.23;;
5821;SDS011;2937;48.562;8.022;2022-11-10T20:17:55;8.83;;;6.07;;
5821;SDS011;2937;48.562;8.022;2022-11-10T20:23:09;9.10;;;6.30;;
5821;SDS011;2937;48.562;8.022;2022-11-10T20:28:21;14.43;;;9.23;;
5821;SDS011;2937;48.562;8.022;2022-11-10T20:33:32;12.47;;;10.03;;
5821;SDS011;2937;48.562;8.022;2022-11-10T20:38:45;11.10;;;8.53;;
5821;SDS011;2937;48.562;8.022;2022-11-10T20:43:56;10.23;;;6.80;;
5821;SDS011;2937;48.562;8.022;2022-11-10T20:49:08;8.20;;;6.83;;
5821;SDS011;2937;48.562;8.022;2022-11-10T20:54:21;9.00;;;5.13;;
5821;SDS011;2937;48.562;8.022;2022-11-10T20:59:32;9.30;;;5.40;;
5821;SDS011;2937;48.562;8.022;2022-11-10T21:04:43;8.97;;;6.10;;
5821;SDS011;2937;48.562;8.022;2022-11-10T21:09:56;12.17;;;8.80;;
5821;SDS011;2937;48.562;8.022;2022-11-10T21:15:08;12.87;;;9.00;;
5821;SDS011;2937;48.562;8.022;2022-11-10T21:20:19;14.70;;;9.80;;
5821;SDS011;2937;48.562;8.022;2022-11-10T21:25:31;19.20;;;11.70;;
5821;SDS011;2937;48.562;8.022;2022-11-10T21:30:44;17.40;;;13.67;;
5821;SDS011;2937;48.562;8.022;2022-11-10T21:35:55;19.00;;;14.00;;
5821;SDS011;2937;48.562;8.022;2022-11-10T21:41:07;18.93;;;12.37;;
5821;SDS011;2937;48.562;8.022;2022-11-10T21:46:19;20.60;;;13.40;;
5821;SDS011;2937;48.562;8.022;2022-11-10T21:51:30;15.90;;;11.00;;
5821;SDS011;2937;48.562;8.022;2022-11-10T21:56:43;18.10;;;9.67;;
5821;SDS011;2937;48.562;8.022;2022-11-10T22:01:54;15.60;;;9.53;;
5821;SDS011;2937;48.562;8.022;2022-11-10T22:07:05;16.30;;;11.10;;
5821;SDS011;2937;48.562;8.022;2022-11-10T22:12:36;13.53;;;8.17;;
5821;SDS011;2937;48.562;8.022;2022-11-10T22:18:08;14.63;;;10.07;;
5821;SDS011;2937;48.562;8.022;2022-11-10T22:23:39;16.10;;;13.37;;
5821;SDS011;2937;48.562;8.022;2022-11-10T22:29:09;19.43;;;15.10;;
5821;SDS011;2937;48.562;8.022;2022-11-10T22:34:21;20.00;;;12.80;;
5821;SDS011;2937;48.562;8.022;2022-11-10T22:39:32;10.90;;;7.70;;
5821;SDS011;2937;48.562;8.022;2022-11-10T22:45:02;9.90;;;8.27;;
5821;SDS011;2937;48.562;8.022;2022-11-10T22:50:13;14.17;;;10.63;;
5821;SDS011;2937;48.562;8.022;2022-11-10T22:55:25;22.30;;;15.97;;
5821;SDS011;2937;48.562;8.022;2022-11-10T23:00:37;19.30;;;15.40;;
5821;SDS011;2937;48.562;8.022;2022-11-10T23:05:49;25.03;;;16.00;;
5821;SDS011;2937;48.562;8.022;2022-11-10T23:11:06;39.03;;;17.93;;
5821;SDS011;2937;48.562;8.022;2022-11-10T23:16:20;82.70;;;19.40;;
5821;SDS011;2937;48.562;8.022;2022-11-10T23:21:31;64.67;;;17.67;;
5821;SDS011;2937;48.562;8.022;2022-11-10T23:26:42;84.07;;;19.60;;
5821;SDS011;2937;48.562;8.022;2022-11-10T23:31:55;93.00;;;17.50;;
5821;SDS011;2937;48.562;8.022;2022-11-10T23:37:06;63.47;;;17.90;;
5821;SDS011;2937;48.562;8.022;2022-11-10T23:42:18;46.60;;;16.97;;
5821;SDS011;2937;48.562;8.022;2022-11-10T23:47:30;77.50;;;21.70;;
5821;SDS011;2937;48.562;8.022;2022-11-10T23:52:41;75.50;;;23.60;;
5821;SDS011;2937;48.562;8.022;2022-11-10T23:57:53;60.47;;;23.27;;
